Latest Weather Observations for Tuggeranong

IDN60801

Issued at 2:05 pm EST Thursday 17 April 2014 (issued every 30 minutes, with the page automatically refreshed every 10 minutes)

About weather observations | Map of weather stations | Latest weather observations for NSW | Other Formats
Station Details ID: 070339 Name: TUGGERANONG (ISABELLA PLAINS) AWS Lat: -35.42 Lon: 149.09 Height: 586.7 m
Data from the previous 72 hours. | See also: Recent months at Tuggeranong
Date/Time
EST
Temp
°C
App
Temp
°C
Dew
Point
Rel
Hum
%
Delta-T
°C
Wind Press
QNH
hPa
Press
MSL
hPa
Rain
since 9 am
mm
Dir
 
Spd
km/h
Gust
km/h
Spd
kts
Gust
kts
17/02:00pm 19.1 16.6 6.6 44 6.4 WSW 9 13 5 7 1019.5 1018.5 0.0
17/01:30pm 18.9 17.1 8.0 49 5.8 W 7 9 4 5 1019.6 - 0.0
17/01:00pm 18.7 17.1 8.1 50 5.6 SW 6 11 3 6 1020.0 1019.1 0.0
17/12:30pm 18.5 16.6 7.6 49 5.7 WNW 7 15 4 8 1020.3 - 0.0
17/12:00pm 17.6 15.3 7.6 52 5.2 SSW 9 15 5 8 1020.7 1019.8 0.0
17/11:30am 17.8 16.5 7.8 52 5.2 SW 4 9 2 5 1021.3 - 0.0
17/11:00am 17.2 15.5 8.4 56 4.6 W 7 11 4 6 1021.6 1020.7 0.0
17/10:30am 16.1 14.9 9.5 65 3.5 NW 6 9 3 5 1021.8 - 0.0
17/10:00am 15.0 13.9 8.3 64 3.5 S 4 7 2 4 1021.9 1021.0 0.0
17/09:30am 13.0 11.5 8.5 74 2.3 WSW 6 9 3 5 1022.0 - 0.0
17/09:00am 11.8 11.3 7.7 76 2.1 CALM 0 7 0 4 1022.1 1021.2 0.0
17/08:30am 10.2 9.6 7.4 83 1.4 CALM 0 0 0 0 1022.2 - 0.0
17/08:00am 8.6 7.2 7.4 92 0.6 W 4 7 2 4 1022.1 1021.2 0.0
17/07:30am 7.0 6.3 6.9 99 0.0 CALM 0 0 0 0 1021.8 - 0.0
17/07:00am 5.0 3.9 4.9 99 0.0 CALM 0 0 0 0 1021.3 1020.4 0.0
17/06:30am 4.4 3.1 4.0 97 0.2 CALM 0 0 0 0 1020.9 - 0.0
17/06:00am 4.6 3.3 4.2 97 0.2 CALM 0 0 0 0 1020.8 1019.9 0.0
17/05:30am 4.9 3.7 4.5 97 0.2 CALM 0 0 0 0 1020.5 - 0.0
17/05:00am 5.2 4.0 4.6 96 0.3 CALM 0 0 0 0 1020.4 1019.5 0.0
17/04:30am 5.8 4.8 5.4 97 0.2 CALM 0 0 0 0 1020.3 - 0.0
17/04:00am 5.9 4.9 5.6 98 0.1 CALM 0 0 0 0 1020.1 1019.2 0.0
17/03:30am 6.1 5.1 5.8 98 0.1 CALM 0 0 0 0 1020.1 - 0.0
17/03:00am 6.6 5.8 6.3 98 0.1 CALM 0 0 0 0 1020.1 1019.2 0.0
17/02:30am 6.7 5.8 6.1 96 0.3 CALM 0 0 0 0 1020.2 - 0.0
17/02:00am 6.8 5.9 5.9 94 0.4 CALM 0 0 0 0 1020.4 1019.5 0.0
17/01:30am 7.3 6.4 6.2 93 0.5 CALM 0 0 0 0 1020.5 - 0.0
17/01:00am 8.2 7.6 7.4 95 0.4 CALM 0 0 0 0 1020.8 1019.9 0.0
17/12:30am 8.3 7.6 7.1 92 0.6 CALM 0 0 0 0 1020.9 - 0.0
17/12:00am 9.2 8.7 7.8 91 0.7 ENE 0 0 0 0 1020.9 1020.0 0.0
 
Date/Time
EST
Temp
°C
App
Temp
°C
Dew
Point
Rel
Hum
%
Delta-T
°C
Wind Press
QNH
hPa
Press
MSL
hPa
Rain
since 9 am
mm
Dir
 
Spd
km/h
Gust
km/h
Spd
kts
Gust
kts
16/11:30pm 9.6 9.2 8.2 91 0.7 CALM 0 0 0 0 1020.8 - 0.0
16/11:00pm 9.5 9.1 8.1 91 0.7 CALM 0 0 0 0 1020.8 1019.9 0.0
16/10:30pm 9.6 9.1 7.7 88 0.9 CALM 0 0 0 0 1020.8 - 0.0
16/10:00pm 10.7 9.8 7.8 82 1.4 ESE 2 6 1 3 1020.9 1020.0 0.0
16/09:30pm 11.9 9.9 8.7 81 1.6 E 9 11 5 6 1020.8 - 0.0
16/09:00pm 12.2 10.8 9.6 84 1.4 E 7 9 4 5 1020.5 1019.6 0.0
16/08:30pm 12.2 11.0 9.4 83 1.5 E 6 7 3 4 1020.3 - 0.0
16/08:00pm 13.3 13.3 9.9 80 1.8 CALM 0 0 0 0 1020.0 1019.1 0.0
16/07:30pm 13.9 14.0 10.3 79 1.9 CALM 0 4 0 2 1019.8 - 0.0
16/07:00pm 13.4 13.3 9.5 77 2.0 CALM 0 0 0 0 1019.8 1018.9 0.0
16/06:30pm 13.8 13.5 8.8 72 2.6 CALM 0 6 0 3 1019.5 - 0.0
16/06:00pm 15.2 14.6 8.9 66 3.3 NW 2 6 1 3 1019.3 1018.3 0.0
16/05:30pm 16.2 14.3 8.9 62 3.9 NW 9 13 5 7 1019.0 - 0.0
16/05:00pm 17.1 14.7 8.5 57 4.5 W 11 15 6 8 1018.7 1017.8 0.0
16/04:30pm 17.8 15.7 8.4 54 5.0 W 9 13 5 7 1018.5 - 0.0
16/04:00pm 19.1 17.2 7.5 47 6.1 W 7 9 4 5 1018.3 1017.4 0.0
16/03:30pm 18.9 17.1 8.0 49 5.8 NW 7 11 4 6 1018.5 - 0.0
16/03:00pm 19.3 17.0 7.4 46 6.2 WNW 9 15 5 8 1018.6 1017.7 0.0
16/02:30pm 19.1 17.1 7.2 46 6.2 WNW 7 11 4 6 1018.8 - 0.0
16/02:00pm 18.9 16.7 6.4 44 6.4 E 7 11 4 6 1019.0 1018.1 0.0
16/01:30pm 18.6 16.8 7.1 47 6.0 SE 6 9 3 5 1019.3 - 0.0
16/01:00pm 18.0 15.8 6.2 46 6.0 WSW 7 15 4 8 1019.6 1018.7 0.0
16/12:30pm 18.0 15.9 5.6 44 6.2 N 6 9 3 5 1019.9 - 0.0
16/12:00pm 17.0 14.5 5.0 45 5.9 WSW 7 13 4 7 1020.4 1019.5 0.0
16/11:30am 16.4 12.8 5.1 47 5.6 E 13 19 7 10 1020.9 - 0.0
16/11:00am 16.1 13.0 5.4 49 5.3 ESE 11 19 6 10 1021.5 1020.6 0.0
16/10:30am 15.1 13.1 6.1 55 4.5 SW 6 11 3 6 1021.8 - 0.0
16/10:00am 15.3 13.3 6.1 54 4.6 ESE 6 13 3 7 1022.0 1021.1 0.0
16/09:30am 13.6 10.5 5.5 58 3.9 S 11 15 6 8 1022.4 - 0.0
16/09:00am 13.0 9.5 5.4 60 3.7 SSE 13 17 7 9 1022.6 1021.8 0.0
16/08:30am 12.0 10.3 6.1 67 2.9 SW 4 11 2 6 1022.6 - 0.0
16/08:00am 10.9 9.2 7.4 79 1.7 NNW 6 7 3 4 1022.4 1021.5 0.0
16/07:30am 8.7 6.8 6.5 86 1.1 WNW 6 7 3 4 1022.3 - 0.0
16/07:00am 6.7 4.5 5.5 92 0.5 WNW 6 7 3 4 1021.9 1021.0 0.0
16/06:30am 6.3 5.1 4.6 89 0.8 CALM 0 0 0 0 1021.7 - 0.0
16/06:00am 6.9 5.6 4.2 83 1.2 CALM 0 0 0 0 1021.5 1020.6 0.0
16/05:30am 9.4 6.7 5.8 78 1.7 SSE 9 17 5 9 1021.5 - 0.0
16/05:00am 8.2 6.5 5.7 84 1.2 SE 4 9 2 5 1021.5 1020.6 0.0
16/04:30am 9.2 7.0 5.4 77 1.8 S 6 9 3 5 1021.6 - 0.0
16/04:00am 10.4 7.0 5.8 73 2.2 SSE 13 20 7 11 1021.4 1020.5 0.0
16/03:30am 10.5 7.1 5.9 73 2.2 SSE 13 17 7 9 1021.3 - 0.0
16/03:00am 10.7 7.3 6.1 73 2.2 SSE 13 22 7 12 1021.4 1020.5 0.0
16/02:30am 11.1 7.8 6.5 73 2.2 SSE 13 24 7 13 1021.6 - 0.0
16/02:00am 11.4 7.8 6.7 73 2.3 SE 15 26 8 14 1021.8 1020.9 0.0
16/01:30am 11.6 8.1 7.1 74 2.2 SE 15 28 8 15 1022.0 - 0.0
16/01:00am 11.7 7.9 7.4 75 2.1 SE 17 24 9 13 1022.2 1021.3 0.0
16/12:30am 11.9 8.9 7.6 75 2.2 SSE 13 19 7 10 1022.3 - 0.0
16/12:00am 11.8 8.8 7.9 77 2.0 SSE 13 17 7 9 1022.4 1021.5 0.0
 
Date/Time
EST
Temp
°C
App
Temp
°C
Dew
Point
Rel
Hum
%
Delta-T
°C
Wind Press
QNH
hPa
Press
MSL
hPa
Rain
since 9 am
mm
Dir
 
Spd
km/h
Gust
km/h
Spd
kts
Gust
kts
15/11:30pm 12.0 9.4 7.9 76 2.1 SSE 11 22 6 12 1022.6 - 0.0
15/11:00pm 12.5 9.6 8.2 75 2.2 SSE 13 20 7 11 1022.7 1021.9 0.0
15/10:30pm 12.3 10.9 9.0 80 1.7 S 6 9 3 5 1022.9 - 0.0
15/10:00pm 12.5 10.7 9.3 81 1.7 ESE 9 17 5 9 1022.6 1021.8 0.0
15/09:30pm 12.6 10.7 9.2 80 1.8 ESE 9 17 5 9 1022.4 - 0.0
15/09:00pm 12.8 12.3 9.4 80 1.8 SSE 2 7 1 4 1022.5 1021.7 0.0
15/08:30pm 13.0 11.8 9.4 79 1.9 E 6 9 3 5 1022.3 - 0.0
15/08:00pm 13.2 11.9 9.1 76 2.1 SSE 6 11 3 6 1022.1 1021.2 0.0
15/07:30pm 13.8 13.4 9.6 76 2.2 ESE 2 6 1 3 1021.9 - 0.0
15/07:00pm 14.8 12.7 9.8 72 2.7 ESE 11 17 6 9 1021.7 1020.8 0.0
15/06:30pm 15.4 13.3 9.7 69 3.1 ESE 11 15 6 8 1021.4 - 0.0
15/06:00pm 15.9 13.8 9.6 66 3.4 E 11 15 6 8 1020.8 1019.9 0.0
15/05:30pm 16.2 13.8 8.7 61 4.0 SE 11 17 6 9 1020.6 - 0.0
15/05:00pm 17.1 14.2 8.3 56 4.6 SE 13 20 7 11 1020.4 1019.5 0.0
15/04:30pm 18.0 15.0 7.7 51 5.4 SSE 13 22 7 12 1020.3 - 0.0
15/04:00pm 17.8 14.5 8.1 53 5.1 S 15 22 8 12 1020.3 1019.4 0.0
15/03:30pm 17.8 14.9 8.1 53 5.1 SSE 13 19 7 10 1020.2 - 0.0
15/03:00pm 18.3 15.8 8.3 52 5.3 SE 11 17 6 9 1020.2 1019.3 0.0
15/02:30pm 18.4 16.3 8.1 51 5.4 ENE 9 17 5 9 1020.2 - 0.0
15/02:00pm 18.6 16.6 7.1 47 6.0 SE 7 11 4 6 1020.2 1019.3 0.0
15/01:30pm 17.5 15.3 7.8 53 5.1 SSW 9 15 5 8 1020.5 - 0.0
15/01:00pm 17.0 15.0 7.1 52 5.1 SE 7 13 4 7 1020.7 1019.8 0.0
15/12:30pm 16.9 14.4 6.7 51 5.2 SE 9 15 5 8 1021.1 - 0.0
15/12:00pm 17.1 13.8 8.0 55 4.7 S 15 22 8 12 1021.6 1020.7 0.0
15/11:30am 15.8 11.7 6.3 53 4.8 SSW 17 24 9 13 1022.0 - 0.0
15/11:00am 16.0 11.7 7.0 55 4.6 S 19 26 10 14 1022.2 1021.3 0.0
15/10:30am 14.6 10.4 5.7 55 4.4 S 17 26 9 14 1022.6 - 0.0
15/10:00am 13.6 8.6 4.7 55 4.2 S 20 32 11 17 1022.9 1022.0 0.0
15/09:30am 13.2 7.8 4.6 56 4.1 S 22 37 12 20 1023.1 - 0.0
15/09:00am 12.5 8.5 5.0 60 3.6 S 15 22 8 12 1023.4 1022.5 0.0
15/08:30am 11.6 7.9 4.6 62 3.3 S 13 22 7 12 1023.3 - 0.0
15/08:00am 10.2 7.7 5.0 70 2.4 SW 7 13 4 7 1023.2 1022.3 0.0
15/07:30am 8.8 6.3 4.6 75 1.9 WSW 7 11 4 6 1022.9 - 0.0
15/07:00am 7.3 4.9 4.3 81 1.3 W 6 9 3 5 1022.6 1021.8 0.0
15/06:30am 6.0 4.7 4.3 89 0.8 CALM 0 0 0 0 1022.4 - 0.0
15/06:00am 6.0 4.6 3.5 84 1.1 CALM 0 0 0 0 1022.5 1021.7 0.0
15/05:30am 8.1 5.7 4.1 76 1.8 S 6 7 3 4 1022.3 - 0.0
15/05:00am 8.9 5.9 4.3 73 2.1 S 9 17 5 9 1022.3 1021.4 0.0
15/04:30am 8.5 6.0 4.5 76 1.8 SSE 7 13 4 7 1022.4 - 0.0
15/04:00am 7.9 5.5 4.5 79 1.5 S 6 9 3 5 1022.3 1021.4 0.0
15/03:30am 8.6 6.0 4.4 75 1.9 S 7 13 4 7 1022.3 - 0.0
15/03:00am 9.1 6.6 4.5 73 2.1 S 7 15 4 8 1022.2 1021.3 0.0
15/02:30am 9.9 7.0 4.9 71 2.3 S 9 19 5 10 1022.3 - 0.0
15/02:00am 10.3 6.8 5.5 72 2.3 S 13 20 7 11 1022.4 1021.5 0.0
15/01:30am 10.5 7.3 5.3 70 2.5 S 11 19 6 10 1022.6 - 0.0
15/01:00am 10.9 7.9 5.9 71 2.4 S 11 15 6 8 1022.6 1021.8 0.0
15/12:30am 10.4 8.3 6.5 77 1.9 SE 7 13 4 7 1022.9 - 0.0
15/12:00am 10.8 8.3 6.6 75 2.0 SE 9 17 5 9 1023.0 1022.1 0.0
 
Date/Time
EST
Temp
°C
App
Temp
°C
Dew
Point
Rel
Hum
%
Delta-T
°C
Wind Press
QNH
hPa
Press
MSL
hPa
Rain
since 9 am
mm
Dir
 
Spd
km/h
Gust
km/h
Spd
kts
Gust
kts
14/11:30pm 11.6 8.8 7.1 74 2.2 SSE 11 26 6 14 1022.9 - 0.0
14/11:00pm 11.6 9.3 7.5 76 2.0 SE 9 13 5 7 1023.0 1022.1 0.0
14/10:30pm 11.0 8.8 7.9 81 1.6 ESE 9 11 5 6 1023.1 - 0.0
14/10:00pm 10.5 8.8 8.3 86 1.1 ESE 7 11 4 6 1023.2 1022.3 0.0
14/09:30pm 10.4 8.6 8.0 85 1.2 ENE 7 9 4 5 1023.1 - 0.0
14/09:00pm 10.8 9.8 7.5 80 1.6 SSE 2 6 1 3 1023.0 1022.1 0.0
14/08:30pm 11.8 9.8 8.5 80 1.7 E 9 13 5 7 1022.7 - 0.0
14/08:00pm 12.2 10.2 8.5 78 1.9 E 9 13 5 7 1022.3 1021.4 0.0
14/07:30pm 12.9 10.9 8.6 75 2.2 ENE 9 15 5 8 1022.1 - 0.0
14/07:00pm 14.1 12.1 8.7 70 2.8 E 9 13 5 7 1021.7 1020.8 0.0
14/06:30pm 15.1 12.6 8.3 64 3.5 E 11 19 6 10 1021.3 - 0.0
14/06:00pm 15.9 13.4 6.6 54 4.7 ENE 9 13 5 7 1020.7 1019.8 0.0
14/05:30pm 16.6 13.6 4.3 44 6.0 SSE 9 13 5 7 1020.3 - 0.0
14/05:00pm 17.5 14.3 5.1 44 6.1 SSE 11 17 6 9 1019.8 1018.9 0.0
14/04:30pm 18.0 15.6 5.2 43 6.4 SE 7 17 4 9 1019.6 - 0.0
14/04:00pm 18.3 16.0 5.5 43 6.4 ESE 7 13 4 7 1019.7 1018.8 0.0
14/03:30pm 18.3 15.6 5.5 43 6.4 SSE 9 17 5 9 1019.8 - 0.0
14/03:00pm 18.8 16.9 6.6 45 6.3 SE 6 13 3 7 1019.6 1018.7 0.0
14/02:30pm 18.6 16.5 5.8 43 6.5 WNW 6 13 3 7 1019.8 - 0.0

Other Formats:

Comma delimited format used in spreadsheet applications
http://www.bom.gov.au/fwo/IDN60801/IDN60801.94925.axf

JavaScript Object Notation format (JSON) in row-major order
http://www.bom.gov.au/fwo/IDN60801/IDN60801.94925.json